createdAt,value
2019-02-10T00:01:14.991Z,97.12
2019-02-10T00:03:46.355Z,120.05
2019-02-10T00:06:24.484Z,120.85
2019-02-10T00:08:50.908Z,119.80
2019-02-10T00:11:22.177Z,124.62
2019-02-10T00:13:53.587Z,124.53
2019-02-10T00:16:25.344Z,132.82
2019-02-10T00:18:56.875Z,142.57
2019-02-10T00:21:28.515Z,140.03
2019-02-10T00:23:59.893Z,134.22
2019-02-10T00:26:33.246Z,127.78
2019-02-10T00:29:04.762Z,130.82
2019-02-10T00:31:36.263Z,131.47
2019-02-10T00:34:07.688Z,141.35
2019-02-10T00:36:39.272Z,147.20
2019-02-10T00:39:10.989Z,131.22
2019-02-10T00:41:42.764Z,139.07
2019-02-10T00:44:14.573Z,128.12
2019-02-10T00:46:46.173Z,119.70
2019-02-10T00:49:17.612Z,126.12
2019-02-10T00:51:49.032Z,132.55
2019-02-10T00:54:20.480Z,133.50
2019-02-10T00:56:52.005Z,129.20
2019-02-10T00:59:23.412Z,121.15
2019-02-10T01:01:55.120Z,128.02
2019-02-10T01:04:26.937Z,121.30
2019-02-10T01:06:58.808Z,126.80
2019-02-10T01:09:30.804Z,127.58
2019-02-10T01:12:02.507Z,115.70
2019-02-10T01:14:34.157Z,103.25
2019-02-10T01:17:05.508Z,112.32
2019-02-10T01:19:36.931Z,117.47
2019-02-10T01:22:08.931Z,109.05
2019-02-10T01:24:40.336Z,111.37
2019-02-10T01:27:11.971Z,111.50
2019-02-10T01:29:43.392Z,113.75
2019-02-10T01:32:14.684Z,119.45
2019-02-10T01:34:46.523Z,98.85
2019-02-10T01:37:18.015Z,108.22
2019-02-10T01:39:49.589Z,111.95
2019-02-10T01:42:21.187Z,109.60
2019-02-10T01:44:52.694Z,95.77
2019-02-10T01:47:24.492Z,109.12
2019-02-10T01:49:56.727Z,101.60
2019-02-10T01:52:28.002Z,97.15
2019-02-10T01:54:59.477Z,106.83
2019-02-10T01:57:31.081Z,104.35
2019-02-10T02:00:02.803Z,103.25
2019-02-10T02:02:35.618Z,100.05
2019-02-10T02:05:08.362Z,94.85
2019-02-10T02:07:39.923Z,106.45
2019-02-10T02:10:12.864Z,97.53
2019-02-10T02:12:44.254Z,99.13
2019-02-10T02:15:16.465Z,96.85
2019-02-10T02:17:48.103Z,92.60
2019-02-10T02:20:19.372Z,102.67
2019-02-10T02:22:51.020Z,94.35
2019-02-10T02:25:23.767Z,90.40
2019-02-10T02:27:55.392Z,91.50
2019-02-10T02:30:26.853Z,88.00
2019-02-10T02:32:58.112Z,84.90
2019-02-10T02:35:29.745Z,81.28
2019-02-10T02:38:01.484Z,82.57
2019-02-10T02:40:33.058Z,78.57
2019-02-10T02:43:04.846Z,82.05
2019-02-10T02:45:36.410Z,85.62
2019-02-10T02:48:07.973Z,65.52
2019-02-10T02:50:39.515Z,77.92
2019-02-10T02:53:10.955Z,82.30
2019-02-10T02:55:42.280Z,76.50
2019-02-10T02:58:14.047Z,77.67
2019-02-10T03:00:45.501Z,76.50
2019-02-10T03:03:16.872Z,78.78
2019-02-10T03:05:48.276Z,81.92
2019-02-10T03:08:19.541Z,78.72
2019-02-10T03:10:50.770Z,77.92
2019-02-10T03:13:22.143Z,73.47
2019-02-10T03:15:53.751Z,73.15
2019-02-10T03:18:25.092Z,77.60
2019-02-10T03:20:56.666Z,79.37
2019-02-10T03:23:28.122Z,78.12
2019-02-10T03:25:59.662Z,85.40
2019-02-10T03:28:31.292Z,81.95
2019-02-10T03:31:02.866Z,80.92
2019-02-10T03:33:34.376Z,83.47
2019-02-10T03:36:06.053Z,84.70
2019-02-10T03:38:37.554Z,85.55
2019-02-10T03:41:08.948Z,94.30
2019-02-10T03:43:40.559Z,89.13
2019-02-10T03:46:12.106Z,84.20
2019-02-10T03:48:43.438Z,91.67
2019-02-10T03:51:14.931Z,86.22
2019-02-10T03:53:46.244Z,88.78
2019-02-10T03:56:17.755Z,92.40
2019-02-10T03:58:49.085Z,92.82
2019-02-10T04:01:20.639Z,84.67
2019-02-10T04:03:51.928Z,87.17
2019-02-10T04:06:23.461Z,91.55
2019-02-10T04:08:55.045Z,89.03
2019-02-10T04:11:26.975Z,85.45
2019-02-10T04:13:58.593Z,86.08
2019-02-10T04:16:30.156Z,82.70
2019-02-10T04:19:01.442Z,75.52
2019-02-10T04:21:34.187Z,84.32
2019-02-10T04:24:05.906Z,84.80
2019-02-10T04:26:37.402Z,81.60
2019-02-10T04:29:09.074Z,81.08
2019-02-10T04:31:40.733Z,75.92
2019-02-10T04:34:12.242Z,79.72
2019-02-10T04:36:43.674Z,81.30
2019-02-10T04:39:15.017Z,81.32
2019-02-10T04:41:46.722Z,86.10
2019-02-10T04:44:18.375Z,81.15
2019-02-10T04:46:49.845Z,90.32
2019-02-10T04:49:21.583Z,83.65
2019-02-10T04:51:53.298Z,107.40
2019-02-10T04:54:24.682Z,129.40
2019-02-10T04:56:56.171Z,106.63
2019-02-10T04:59:27.816Z,114.05
2019-02-10T05:01:59.324Z,130.63
2019-02-10T05:04:30.920Z,144.45
2019-02-10T05:07:02.557Z,132.57
2019-02-10T05:09:34.102Z,126.10
2019-02-10T05:12:05.847Z,127.58
2019-02-10T05:14:37.545Z,119.00
2019-02-10T05:17:09.338Z,117.35
2019-02-10T05:19:41.175Z,124.42
2019-02-10T05:22:13.030Z,114.85
2019-02-10T05:24:44.604Z,123.00
2019-02-10T05:27:16.184Z,113.42
2019-02-10T05:29:47.720Z,110.08
2019-02-10T05:32:19.208Z,111.45
2019-02-10T05:34:51.791Z,105.70
2019-02-10T05:37:23.430Z,110.80
2019-02-10T05:39:55.120Z,103.80
2019-02-10T05:42:26.796Z,111.55
2019-02-10T05:44:58.462Z,114.77
2019-02-10T05:47:30.097Z,109.55
2019-02-10T05:50:01.720Z,115.40
2019-02-10T05:52:33.298Z,114.88
2019-02-10T05:55:04.892Z,107.37
2019-02-10T05:57:36.389Z,98.85
2019-02-10T06:00:08.209Z,108.12
2019-02-10T06:02:39.864Z,106.45
2019-02-10T06:05:20.287Z,103.22
2019-02-10T06:07:51.997Z,102.12
2019-02-10T06:10:23.253Z,108.70
2019-02-10T06:12:54.916Z,92.70
2019-02-10T06:15:26.216Z,111.77
2019-02-10T06:17:57.784Z,100.18
2019-02-10T06:20:29.501Z,101.78
2019-02-10T06:23:00.967Z,100.65
2019-02-10T06:25:32.198Z,99.95
2019-02-10T06:28:03.587Z,90.50
2019-02-10T06:30:35.133Z,89.22
2019-02-10T06:33:06.408Z,88.55
2019-02-10T06:35:37.984Z,88.00
2019-02-10T06:38:09.437Z,83.35
2019-02-10T06:40:40.885Z,87.30
2019-02-10T06:43:12.274Z,85.00
2019-02-10T06:45:43.547Z,85.47
2019-02-10T06:48:14.823Z,79.60
2019-02-10T06:50:46.382Z,78.12
2019-02-10T06:53:17.686Z,83.80
2019-02-10T06:55:49.306Z,82.67
2019-02-10T06:58:20.609Z,74.35
2019-02-10T07:01:14.293Z,74.32
2019-02-10T07:03:59.507Z,62.00
2019-02-10T07:06:31.068Z,66.22
2019-02-10T07:09:02.784Z,55.33
2019-02-10T07:11:34.629Z,62.90
2019-02-10T07:14:14.018Z,62.10
2019-02-10T07:17:10.331Z,58.48
2019-02-10T07:20:33.521Z,58.55
2019-02-10T07:23:44.238Z,54.83
2019-02-10T07:26:18.777Z,56.40
2019-02-10T07:29:39.983Z,54.83
2019-02-10T07:32:22.400Z,50.48
2019-02-10T07:35:37.069Z,57.15
2019-02-10T07:38:38.607Z,52.53
2019-02-10T07:42:10.749Z,53.68
2019-02-10T07:45:28.777Z,49.18
2019-02-10T07:48:49.480Z,48.50
2019-02-10T07:52:04.347Z,49.63
2019-02-10T07:55:05.396Z,50.92
2019-02-10T07:58:25.760Z,47.62
2019-02-10T08:01:19.455Z,44.00
2019-02-10T08:04:33.309Z,47.85
2019-02-10T08:07:35.701Z,45.25
2019-02-10T08:10:53.075Z,55.55
2019-02-10T08:13:40.780Z,50.10
2019-02-10T08:16:36.358Z,46.63
2019-02-10T08:19:40.465Z,46.77
2019-02-10T08:22:51.348Z,51.42
2019-02-10T08:25:56.612Z,50.05
2019-02-10T08:29:16.389Z,46.58
2019-02-10T08:32:33.403Z,51.10
2019-02-10T08:35:54.464Z,45.05
2019-02-10T08:38:59.941Z,52.38
2019-02-10T08:42:02.742Z,51.23
2019-02-10T08:44:49.652Z,43.48
2019-02-10T08:47:55.273Z,48.08
2019-02-10T08:51:10.199Z,50.48
2019-02-10T08:53:44.054Z,49.88
2019-02-10T08:56:15.676Z,54.33
2019-02-10T08:58:47.026Z,50.00
2019-02-10T09:01:18.267Z,60.92
2019-02-10T09:03:49.833Z,59.10
2019-02-10T09:06:21.222Z,60.10
2019-02-10T09:08:52.602Z,65.62
2019-02-10T09:11:24.120Z,62.30
2019-02-10T09:13:55.722Z,68.07
2019-02-10T09:16:27.334Z,76.90
2019-02-10T09:18:59.080Z,72.45
2019-02-10T09:21:30.952Z,67.72
2019-02-10T09:24:02.656Z,73.67
2019-02-10T09:26:34.276Z,62.83
2019-02-10T09:29:05.871Z,63.65
2019-02-10T09:31:38.540Z,60.55
2019-02-10T09:34:11.192Z,59.38
2019-02-10T09:36:42.938Z,57.08
2019-02-10T09:39:14.333Z,49.08
2019-02-10T09:41:45.650Z,54.80
2019-02-10T09:44:16.992Z,53.78
2019-02-10T09:46:48.952Z,48.73
2019-02-10T09:49:20.558Z,52.62
2019-02-10T09:51:52.096Z,41.13
2019-02-10T09:54:23.679Z,43.73
2019-02-10T09:56:55.058Z,39.40
2019-02-10T09:59:26.913Z,40.93
2019-02-10T10:01:57.962Z,38.50
2019-02-10T10:04:29.267Z,35.43
2019-02-10T10:07:00.697Z,34.93
2019-02-10T10:09:33.208Z,30.77
2019-02-10T10:12:05.265Z,30.83
2019-02-10T10:14:36.649Z,29.30
2019-02-10T10:17:08.112Z,32.83
2019-02-10T10:19:39.497Z,31.73
2019-02-10T10:22:10.827Z,27.67
2019-02-10T10:24:50.208Z,22.47
2019-02-10T10:27:14.856Z,20.37
2019-02-10T10:29:46.131Z,22.53
2019-02-10T10:32:17.299Z,25.33
2019-02-10T10:34:48.799Z,18.53
2019-02-10T10:37:21.102Z,16.13
2019-02-10T10:39:52.306Z,16.30
2019-02-10T10:42:23.739Z,15.57
2019-02-10T10:44:54.682Z,13.10
2019-02-10T10:47:26.257Z,15.47
2019-02-10T10:49:57.617Z,17.93
2019-02-10T10:52:29.087Z,16.80
2019-02-10T10:55:00.443Z,17.00
2019-02-10T10:57:31.996Z,19.33
2019-02-10T11:00:03.494Z,14.70
2019-02-10T11:02:34.847Z,13.10
2019-02-10T11:05:06.270Z,10.10
2019-02-10T11:07:37.519Z,11.07
2019-02-10T11:10:09.069Z,9.10
2019-02-10T11:12:40.637Z,9.67
2019-02-10T11:15:12.160Z,8.17
2019-02-10T11:17:43.419Z,7.07
2019-02-10T11:20:15.224Z,6.80
2019-02-10T11:22:46.542Z,6.73
2019-02-10T11:25:17.879Z,9.57
2019-02-10T11:27:49.265Z,6.87
2019-02-10T11:30:20.569Z,8.87
2019-02-10T11:32:52.203Z,5.57
2019-02-10T11:35:23.827Z,7.40
2019-02-10T11:37:55.226Z,8.43
2019-02-10T11:40:26.723Z,7.50
2019-02-10T11:42:58.036Z,9.53
2019-02-10T11:45:29.389Z,9.60
2019-02-10T11:48:00.677Z,7.50
2019-02-10T11:50:31.980Z,9.80
2019-02-10T11:53:03.239Z,10.57
2019-02-10T11:55:34.684Z,14.40
2019-02-10T11:58:06.531Z,11.17
2019-02-10T12:00:37.848Z,7.40
2019-02-10T12:03:09.049Z,11.93
2019-02-10T12:05:40.484Z,12.23
2019-02-10T12:08:11.583Z,10.80
2019-02-10T12:10:42.858Z,8.70
2019-02-10T12:13:14.405Z,12.07
2019-02-10T12:15:45.842Z,8.57
2019-02-10T12:18:16.846Z,10.83
2019-02-10T12:20:51.080Z,13.43
2019-02-10T12:23:22.486Z,11.63
2019-02-10T12:25:53.611Z,14.60
2019-02-10T12:28:25.025Z,8.27
2019-02-10T12:30:55.969Z,9.17
2019-02-10T12:33:27.304Z,11.00
2019-02-10T12:35:58.666Z,12.70
2019-02-10T12:38:29.680Z,10.33
2019-02-10T12:41:01.224Z,10.03
2019-02-10T12:43:32.412Z,11.13
2019-02-10T12:46:03.688Z,10.50
2019-02-10T12:48:35.160Z,11.13
2019-02-10T12:51:06.397Z,10.37
2019-02-10T12:53:37.235Z,9.80
2019-02-10T12:56:08.293Z,11.43
2019-02-10T12:58:39.315Z,13.87
2019-02-10T13:01:10.511Z,12.60
2019-02-10T13:03:41.817Z,11.73
2019-02-10T13:06:13.192Z,10.67
2019-02-10T13:08:44.522Z,9.83
2019-02-10T13:11:15.692Z,9.77
2019-02-10T13:13:46.808Z,6.83
2019-02-10T13:16:17.859Z,9.77
2019-02-10T13:18:48.888Z,10.70
2019-02-10T13:21:20.238Z,10.03
2019-02-10T13:23:51.494Z,13.07
2019-02-10T13:26:22.968Z,9.43
2019-02-10T13:28:54.147Z,7.37
2019-02-10T13:31:25.520Z,10.37
2019-02-10T13:33:56.989Z,9.33
2019-02-10T13:36:28.245Z,9.23
2019-02-10T13:38:59.816Z,11.33
2019-02-10T13:41:38.445Z,8.50
2019-02-10T13:44:09.889Z,9.07
2019-02-10T13:46:41.146Z,6.23
2019-02-10T13:49:12.244Z,8.67
2019-02-10T13:51:43.246Z,10.63
2019-02-10T13:54:14.518Z,10.43
2019-02-10T13:56:45.601Z,7.93
2019-02-10T13:59:16.913Z,9.60
2019-02-10T14:01:47.912Z,9.03
2019-02-10T14:04:19.468Z,10.60
2019-02-10T14:06:50.740Z,8.33
2019-02-10T14:09:22.066Z,17.13
2019-02-10T14:11:53.473Z,11.00
2019-02-10T14:14:24.920Z,10.47
2019-02-10T14:16:56.255Z,9.83
2019-02-10T14:19:27.449Z,9.53
2019-02-10T14:21:58.700Z,11.97
2019-02-10T14:24:29.981Z,12.60
2019-02-10T14:27:01.289Z,10.10
2019-02-10T14:29:32.738Z,12.27
2019-02-10T14:32:04.197Z,10.50
2019-02-10T14:34:35.483Z,14.53
2019-02-10T14:37:06.834Z,11.17
2019-02-10T14:39:38.195Z,12.67
2019-02-10T14:42:09.410Z,10.90
2019-02-10T14:44:40.658Z,12.10
2019-02-10T14:47:11.997Z,12.03
2019-02-10T14:49:43.236Z,19.07
2019-02-10T14:52:14.403Z,19.07
2019-02-10T14:54:45.430Z,14.40
2019-02-10T14:57:16.432Z,14.53
2019-02-10T14:59:47.361Z,12.40
2019-02-10T15:02:18.345Z,12.03
2019-02-10T15:04:49.818Z,13.33
2019-02-10T15:07:25.307Z,8.67
2019-02-10T15:09:53.540Z,12.00
2019-02-10T15:12:24.950Z,10.77
2019-02-10T15:14:56.431Z,11.27
2019-02-10T15:17:27.850Z,11.00
2019-02-10T15:19:59.134Z,11.00
2019-02-10T15:22:30.419Z,11.37
2019-02-10T15:25:01.493Z,9.47
2019-02-10T15:27:32.688Z,12.93
2019-02-10T15:30:03.978Z,14.67
2019-02-10T15:32:35.510Z,14.53
2019-02-10T15:35:07.083Z,18.40
2019-02-10T15:37:38.392Z,20.53
2019-02-10T15:40:10.085Z,20.77
2019-02-10T15:42:41.670Z,22.20
2019-02-10T15:45:12.752Z,25.20
2019-02-10T15:47:43.987Z,26.07
2019-02-10T15:50:15.683Z,23.43
2019-02-10T15:52:47.007Z,22.07
2019-02-10T15:55:18.326Z,24.40
2019-02-10T15:57:49.801Z,22.00
2019-02-10T16:00:22.904Z,26.13
2019-02-10T16:02:54.224Z,24.70
2019-02-10T16:05:25.535Z,38.10
2019-02-10T16:07:56.868Z,56.83
2019-02-10T16:10:28.203Z,66.60
2019-02-10T16:12:59.614Z,63.73
2019-02-10T16:15:30.852Z,53.90
2019-02-10T16:18:02.370Z,58.20
2019-02-10T16:20:33.434Z,55.90
2019-02-10T16:23:04.741Z,52.17
2019-02-10T16:25:36.038Z,50.07
2019-02-10T16:28:07.368Z,42.83
2019-02-10T16:30:38.610Z,61.37
2019-02-10T16:33:09.871Z,89.07
2019-02-10T16:35:41.045Z,82.27
2019-02-10T16:38:12.405Z,84.87
2019-02-10T16:40:43.663Z,86.53
2019-02-10T16:43:14.872Z,66.83
2019-02-10T16:45:46.623Z,60.33
2019-02-10T16:48:18.422Z,67.53
2019-02-10T16:50:49.725Z,63.77
2019-02-10T16:53:21.044Z,60.80
2019-02-10T16:55:52.590Z,66.72
2019-02-10T16:58:23.896Z,63.00
2019-02-10T17:00:55.371Z,81.60
2019-02-10T17:03:26.527Z,74.43
2019-02-10T17:05:58.231Z,72.10
2019-02-10T17:08:29.455Z,75.57
2019-02-10T17:11:00.911Z,70.25
2019-02-10T17:13:33.001Z,87.95
2019-02-10T17:16:05.375Z,75.17
2019-02-10T17:18:36.999Z,84.92
2019-02-10T17:21:08.617Z,79.22
2019-02-10T17:23:40.154Z,103.02
2019-02-10T17:26:12.802Z,88.70
2019-02-10T17:28:44.205Z,75.12
2019-02-10T17:31:15.439Z,85.47
2019-02-10T17:33:46.669Z,77.17
2019-02-10T17:36:18.145Z,86.53
2019-02-10T17:38:49.884Z,87.17
2019-02-10T17:41:25.804Z,73.42
2019-02-10T17:43:57.728Z,81.20
2019-02-10T17:46:29.306Z,72.82
2019-02-10T17:49:00.764Z,72.42
2019-02-10T17:51:32.506Z,59.33
2019-02-10T17:54:04.103Z,77.50
2019-02-10T17:56:35.676Z,74.50
2019-02-10T17:59:07.272Z,85.57
2019-02-10T18:01:38.753Z,98.42
2019-02-10T18:04:10.122Z,123.78
2019-02-10T18:06:41.813Z,129.00
2019-02-10T18:09:13.174Z,130.12
2019-02-10T18:11:44.796Z,111.42
2019-02-10T18:14:41.030Z,97.27
2019-02-10T18:17:49.965Z,111.85
2019-02-10T18:20:28.717Z,110.75
2019-02-10T18:23:17.843Z,114.85
2019-02-10T18:26:20.428Z,102.38
2019-02-10T18:29:13.555Z,108.40
2019-02-10T18:32:01.901Z,94.28
2019-02-10T18:34:58.162Z,84.83
2019-02-10T18:37:43.009Z,92.15
2019-02-10T18:40:39.665Z,93.70
2019-02-10T18:43:22.806Z,88.27
2019-02-10T18:46:18.671Z,81.22
2019-02-10T18:49:00.886Z,96.95
2019-02-10T18:51:43.029Z,96.45
2019-02-10T18:54:37.336Z,105.40
2019-02-10T18:57:18.311Z,111.03
2019-02-10T19:00:17.987Z,119.65
2019-02-10T19:02:59.979Z,102.20
2019-02-10T19:05:56.560Z,109.15
2019-02-10T19:08:39.341Z,98.67
2019-02-10T19:11:32.519Z,97.05
2019-02-10T19:14:25.826Z,102.82
2019-02-10T19:17:07.696Z,106.83
2019-02-10T19:20:06.895Z,95.75
2019-02-10T19:23:00.429Z,107.10
2019-02-10T19:25:51.133Z,100.10
2019-02-10T19:28:35.176Z,103.22
2019-02-10T19:31:13.319Z,100.75
2019-02-10T19:34:02.943Z,107.72
2019-02-10T19:36:52.169Z,129.03
2019-02-10T19:39:59.133Z,136.82
2019-02-10T19:42:48.386Z,141.37
2019-02-10T19:45:46.535Z,130.60
2019-02-10T19:48:37.153Z,136.10
2019-02-10T19:51:27.369Z,125.80
2019-02-10T19:54:13.368Z,114.97
2019-02-10T19:57:09.680Z,86.25
2019-02-10T20:00:09.282Z,112.83
2019-02-10T20:02:59.191Z,86.50
2019-02-10T20:06:02.357Z,79.25
2019-02-10T20:08:44.351Z,72.05
2019-02-10T20:11:41.102Z,71.35
2019-02-10T20:14:31.703Z,72.70
2019-02-10T20:17:19.334Z,70.87
2019-02-10T20:20:08.174Z,66.12
2019-02-10T20:23:04.544Z,59.80
2019-02-10T20:25:54.934Z,66.95
2019-02-10T20:28:44.184Z,60.17
2019-02-10T20:31:28.258Z,47.93
2019-02-10T20:34:18.634Z,53.92
2019-02-10T20:37:12.241Z,48.95
2019-02-10T20:39:58.717Z,43.85
2019-02-10T20:42:46.674Z,51.63
2019-02-10T20:45:40.137Z,48.87
2019-02-10T20:48:36.701Z,55.20
2019-02-10T20:51:20.239Z,48.10
2019-02-10T20:54:10.036Z,44.27
2019-02-10T20:56:48.376Z,51.60
2019-02-10T20:59:41.322Z,45.48
2019-02-10T21:02:31.852Z,49.25
2019-02-10T21:05:16.771Z,51.92
2019-02-10T21:08:13.336Z,53.33
2019-02-10T21:11:03.835Z,52.65
2019-02-10T21:13:50.672Z,47.80
2019-02-10T21:16:59.149Z,48.48
2019-02-10T21:20:02.270Z,50.58
2019-02-10T21:22:46.200Z,57.73
2019-02-10T21:25:35.774Z,58.17
2019-02-10T21:28:25.014Z,55.55
2019-02-10T21:31:14.179Z,58.60
2019-02-10T21:33:52.384Z,56.90
2019-02-10T21:36:44.869Z,49.23
2019-02-10T21:39:38.153Z,51.92
2019-02-10T21:42:29.079Z,53.87
2019-02-10T21:45:15.902Z,45.98
2019-02-10T21:47:54.724Z,48.73
2019-02-10T21:50:26.380Z,48.17
2019-02-10T21:52:57.866Z,48.35
2019-02-10T21:55:29.518Z,44.05
2019-02-10T21:58:00.908Z,45.80
2019-02-10T22:00:32.487Z,42.78
2019-02-10T22:03:04.086Z,47.23
2019-02-10T22:05:35.359Z,43.25
2019-02-10T22:08:06.998Z,43.58
2019-02-10T22:10:38.783Z,42.13
2019-02-10T22:13:10.425Z,42.93
2019-02-10T22:15:42.078Z,44.38
2019-02-10T22:18:13.736Z,45.95
2019-02-10T22:20:45.263Z,46.33
2019-02-10T22:23:16.856Z,41.45
2019-02-10T22:25:48.487Z,44.10
2019-02-10T22:28:19.809Z,41.80
2019-02-10T22:30:51.146Z,39.65
2019-02-10T22:33:22.803Z,41.55
2019-02-10T22:35:54.086Z,42.80
2019-02-10T22:38:25.751Z,50.75
2019-02-10T22:40:57.261Z,41.35
2019-02-10T22:43:28.865Z,76.10
2019-02-10T22:46:00.321Z,49.67
2019-02-10T22:48:31.644Z,46.68
2019-02-10T22:51:02.856Z,42.85
2019-02-10T22:53:34.454Z,44.63
2019-02-10T22:56:06.123Z,43.70
2019-02-10T22:58:37.781Z,43.38
2019-02-10T23:01:09.658Z,44.75
2019-02-10T23:03:41.229Z,42.05
2019-02-10T23:06:12.845Z,45.17
2019-02-10T23:08:44.317Z,40.83
2019-02-10T23:11:15.634Z,41.63
2019-02-10T23:13:47.003Z,46.88
2019-02-10T23:16:18.378Z,43.48
2019-02-10T23:18:49.601Z,47.98
2019-02-10T23:21:20.842Z,49.30
2019-02-10T23:23:52.046Z,50.73
2019-02-10T23:26:23.617Z,49.15
2019-02-10T23:28:54.854Z,48.90
2019-02-10T23:31:26.134Z,47.05
2019-02-10T23:33:57.696Z,45.88
2019-02-10T23:36:29.429Z,53.60
2019-02-10T23:39:01.026Z,46.60
2019-02-10T23:41:34.204Z,50.00
2019-02-10T23:44:05.692Z,53.78
2019-02-10T23:46:37.277Z,51.28
2019-02-10T23:49:08.852Z,48.10
2019-02-10T23:51:40.357Z,44.42
2019-02-10T23:54:11.952Z,57.48
2019-02-10T23:56:47.228Z,51.37
2019-02-10T23:59:16.259Z,46.92
